sensor_id;sensor_type;location;lat;lon;timestamp;temperature;humidity
15630;DHT22;7914;50.842;0.166;2023-06-04T00:00:13;12.00;83.60
15630;DHT22;7914;50.842;0.166;2023-06-04T00:02:39;12.00;83.70
15630;DHT22;7914;50.842;0.166;2023-06-04T00:05:05;12.00;83.80
15630;DHT22;7914;50.842;0.166;2023-06-04T00:07:30;12.00;83.70
15630;DHT22;7914;50.842;0.166;2023-06-04T00:09:56;11.90;83.80
15630;DHT22;7914;50.842;0.166;2023-06-04T00:12:22;11.90;84.10
15630;DHT22;7914;50.842;0.166;2023-06-04T00:14:47;11.90;84.10
15630;DHT22;7914;50.842;0.166;2023-06-04T00:17:13;11.90;83.80
15630;DHT22;7914;50.842;0.166;2023-06-04T00:19:39;11.90;84.10
15630;DHT22;7914;50.842;0.166;2023-06-04T00:22:08;11.80;84.30
15630;DHT22;7914;50.842;0.166;2023-06-04T00:24:36;11.80;84.50
15630;DHT22;7914;50.842;0.166;2023-06-04T00:27:02;11.80;84.40
15630;DHT22;7914;50.842;0.166;2023-06-04T00:29:28;11.80;84.50
15630;DHT22;7914;50.842;0.166;2023-06-04T00:31:53;11.80;84.60
15630;DHT22;7914;50.842;0.166;2023-06-04T00:34:19;11.80;84.50
15630;DHT22;7914;50.842;0.166;2023-06-04T00:36:45;11.80;84.40
15630;DHT22;7914;50.842;0.166;2023-06-04T00:39:11;11.80;84.40
15630;DHT22;7914;50.842;0.166;2023-06-04T00:41:36;11.90;84.40
15630;DHT22;7914;50.842;0.166;2023-06-04T00:44:02;11.80;84.80
15630;DHT22;7914;50.842;0.166;2023-06-04T00:46:32;11.70;85.10
15630;DHT22;7914;50.842;0.166;2023-06-04T00:48:58;11.70;85.30
15630;DHT22;7914;50.842;0.166;2023-06-04T00:51:25;11.60;85.70
15630;DHT22;7914;50.842;0.166;2023-06-04T00:53:51;11.60;85.70
15630;DHT22;7914;50.842;0.166;2023-06-04T00:56:18;11.60;85.80
15630;DHT22;7914;50.842;0.166;2023-06-04T00:58:45;11.60;86.10
15630;DHT22;7914;50.842;0.166;2023-06-04T01:01:31;11.50;86.40
15630;DHT22;7914;50.842;0.166;2023-06-04T01:04:00;11.50;86.50
15630;DHT22;7914;50.842;0.166;2023-06-04T01:06:39;11.50;86.70
15630;DHT22;7914;50.842;0.166;2023-06-04T01:09:05;11.40;87.10
15630;DHT22;7914;50.842;0.166;2023-06-04T01:11:38;11.40;87.20
15630;DHT22;7914;50.842;0.166;2023-06-04T01:14:05;11.40;87.70
15630;DHT22;7914;50.842;0.166;2023-06-04T01:16:49;11.30;87.90
15630;DHT22;7914;50.842;0.166;2023-06-04T01:25:09;11.30;88.20
15630;DHT22;7914;50.842;0.166;2023-06-04T01:27:38;11.30;88.10
15630;DHT22;7914;50.842;0.166;2023-06-04T01:30:07;11.20;88.60
15630;DHT22;7914;50.842;0.166;2023-06-04T01:32:34;11.10;89.10
15630;DHT22;7914;50.842;0.166;2023-06-04T01:35:01;11.00;89.40
15630;DHT22;7914;50.842;0.166;2023-06-04T01:37:27;11.00;89.40
15630;DHT22;7914;50.842;0.166;2023-06-04T01:39:52;11.00;90.00
15630;DHT22;7914;50.842;0.166;2023-06-04T01:42:18;10.90;90.30
15630;DHT22;7914;50.842;0.166;2023-06-04T01:44:44;10.80;90.60
15630;DHT22;7914;50.842;0.166;2023-06-04T01:47:09;10.70;91.20
15630;DHT22;7914;50.842;0.166;2023-06-04T01:49:35;10.60;91.50
15630;DHT22;7914;50.842;0.166;2023-06-04T01:52:03;10.50;91.80
15630;DHT22;7914;50.842;0.166;2023-06-04T01:54:29;10.60;91.80
15630;DHT22;7914;50.842;0.166;2023-06-04T01:56:55;10.70;91.90
15630;DHT22;7914;50.842;0.166;2023-06-04T01:59:21;10.70;91.50
15630;DHT22;7914;50.842;0.166;2023-06-04T02:01:47;10.80;91.40
15630;DHT22;7914;50.842;0.166;2023-06-04T02:04:12;10.70;91.70
15630;DHT22;7914;50.842;0.166;2023-06-04T02:06:38;10.80;92.00
15630;DHT22;7914;50.842;0.166;2023-06-04T02:09:04;11.00;91.40
15630;DHT22;7914;50.842;0.166;2023-06-04T02:11:30;10.90;91.40
15630;DHT22;7914;50.842;0.166;2023-06-04T02:13:56;10.90;91.30
15630;DHT22;7914;50.842;0.166;2023-06-04T02:16:21;10.80;92.10
15630;DHT22;7914;50.842;0.166;2023-06-04T02:18:47;10.80;92.20
15630;DHT22;7914;50.842;0.166;2023-06-04T02:21:13;10.80;92.50
15630;DHT22;7914;50.842;0.166;2023-06-04T02:23:38;10.80;92.70
15630;DHT22;7914;50.842;0.166;2023-06-04T02:26:04;10.90;92.70
15630;DHT22;7914;50.842;0.166;2023-06-04T02:28:30;10.90;92.50
15630;DHT22;7914;50.842;0.166;2023-06-04T02:30:56;10.90;92.70
15630;DHT22;7914;50.842;0.166;2023-06-04T02:33:22;11.00;92.80
15630;DHT22;7914;50.842;0.166;2023-06-04T02:35:47;11.00;92.30
15630;DHT22;7914;50.842;0.166;2023-06-04T02:38:13;10.90;92.60
15630;DHT22;7914;50.842;0.166;2023-06-04T02:40:39;10.90;93.00
15630;DHT22;7914;50.842;0.166;2023-06-04T02:43:05;10.90;92.90
15630;DHT22;7914;50.842;0.166;2023-06-04T02:45:32;10.90;93.20
15630;DHT22;7914;50.842;0.166;2023-06-04T02:47:57;10.90;93.20
15630;DHT22;7914;50.842;0.166;2023-06-04T02:50:23;10.80;93.30
15630;DHT22;7914;50.842;0.166;2023-06-04T02:52:49;10.80;93.40
15630;DHT22;7914;50.842;0.166;2023-06-04T02:55:15;10.80;93.80
15630;DHT22;7914;50.842;0.166;2023-06-04T02:57:41;10.80;93.90
15630;DHT22;7914;50.842;0.166;2023-06-04T03:00:09;10.80;94.00
15630;DHT22;7914;50.842;0.166;2023-06-04T03:02:45;10.70;94.20
15630;DHT22;7914;50.842;0.166;2023-06-04T03:05:13;10.70;94.60
15630;DHT22;7914;50.842;0.166;2023-06-04T03:07:40;10.70;94.80
15630;DHT22;7914;50.842;0.166;2023-06-04T03:10:09;10.70;94.80
15630;DHT22;7914;50.842;0.166;2023-06-04T03:12:35;10.70;94.80
15630;DHT22;7914;50.842;0.166;2023-06-04T03:15:01;10.80;95.00
15630;DHT22;7914;50.842;0.166;2023-06-04T03:17:27;10.80;95.00
15630;DHT22;7914;50.842;0.166;2023-06-04T03:19:53;10.80;95.20
15630;DHT22;7914;50.842;0.166;2023-06-04T03:22:21;10.80;95.20
15630;DHT22;7914;50.842;0.166;2023-06-04T03:24:47;10.70;95.30
15630;DHT22;7914;50.842;0.166;2023-06-04T03:27:13;10.70;95.40
15630;DHT22;7914;50.842;0.166;2023-06-04T03:29:39;10.80;95.40
15630;DHT22;7914;50.842;0.166;2023-06-04T03:32:06;10.70;95.60
15630;DHT22;7914;50.842;0.166;2023-06-04T03:34:31;10.70;95.90
15630;DHT22;7914;50.842;0.166;2023-06-04T03:36:57;10.70;96.30
15630;DHT22;7914;50.842;0.166;2023-06-04T03:39:23;10.70;95.90
15630;DHT22;7914;50.842;0.166;2023-06-04T03:41:49;10.70;95.60
15630;DHT22;7914;50.842;0.166;2023-06-04T03:44:16;10.80;95.80
15630;DHT22;7914;50.842;0.166;2023-06-04T03:46:42;10.80;95.80
15630;DHT22;7914;50.842;0.166;2023-06-04T03:49:12;10.70;96.20
15630;DHT22;7914;50.842;0.166;2023-06-04T03:51:38;10.70;96.50
15630;DHT22;7914;50.842;0.166;2023-06-04T03:54:04;10.70;96.40
15630;DHT22;7914;50.842;0.166;2023-06-04T03:56:30;10.70;96.40
15630;DHT22;7914;50.842;0.166;2023-06-04T03:58:56;10.70;96.50
15630;DHT22;7914;50.842;0.166;2023-06-04T04:01:22;10.60;96.70
15630;DHT22;7914;50.842;0.166;2023-06-04T04:03:51;10.60;97.10
15630;DHT22;7914;50.842;0.166;2023-06-04T04:06:18;10.50;97.30
15630;DHT22;7914;50.842;0.166;2023-06-04T04:08:44;10.50;97.50
15630;DHT22;7914;50.842;0.166;2023-06-04T04:11:14;10.50;97.30
15630;DHT22;7914;50.842;0.166;2023-06-04T04:13:40;10.60;97.30
15630;DHT22;7914;50.842;0.166;2023-06-04T04:16:06;10.60;97.70
15630;DHT22;7914;50.842;0.166;2023-06-04T04:18:33;10.60;97.80
15630;DHT22;7914;50.842;0.166;2023-06-04T04:20:59;10.60;97.50
15630;DHT22;7914;50.842;0.166;2023-06-04T04:23:26;10.60;97.40
15630;DHT22;7914;50.842;0.166;2023-06-04T04:25:53;10.60;97.60
15630;DHT22;7914;50.842;0.166;2023-06-04T04:28:19;10.70;97.80
15630;DHT22;7914;50.842;0.166;2023-06-04T04:30:46;10.90;97.60
15630;DHT22;7914;50.842;0.166;2023-06-04T04:33:14;11.00;96.90
15630;DHT22;7914;50.842;0.166;2023-06-04T04:35:44;11.10;96.60
15630;DHT22;7914;50.842;0.166;2023-06-04T04:38:10;11.20;96.30
15630;DHT22;7914;50.842;0.166;2023-06-04T04:40:36;11.30;96.00
15630;DHT22;7914;50.842;0.166;2023-06-04T04:43:02;11.40;95.20
15630;DHT22;7914;50.842;0.166;2023-06-04T04:45:29;11.50;94.60
15630;DHT22;7914;50.842;0.166;2023-06-04T04:47:54;11.60;94.60
15630;DHT22;7914;50.842;0.166;2023-06-04T04:50:20;11.50;95.20
15630;DHT22;7914;50.842;0.166;2023-06-04T04:52:46;11.70;95.10
15630;DHT22;7914;50.842;0.166;2023-06-04T04:55:11;11.70;94.60
15630;DHT22;7914;50.842;0.166;2023-06-04T04:57:38;11.90;94.50
15630;DHT22;7914;50.842;0.166;2023-06-04T05:00:05;12.20;93.30
15630;DHT22;7914;50.842;0.166;2023-06-04T05:02:32;12.40;92.20
15630;DHT22;7914;50.842;0.166;2023-06-04T05:04:58;12.60;91.00
15630;DHT22;7914;50.842;0.166;2023-06-04T05:07:23;12.70;90.90
15630;DHT22;7914;50.842;0.166;2023-06-04T05:09:50;12.90;90.30
15630;DHT22;7914;50.842;0.166;2023-06-04T05:12:16;13.20;89.20
15630;DHT22;7914;50.842;0.166;2023-06-04T05:14:41;13.50;88.60
15630;DHT22;7914;50.842;0.166;2023-06-04T05:17:07;13.80;86.70
15630;DHT22;7914;50.842;0.166;2023-06-04T05:19:36;14.10;85.70
15630;DHT22;7914;50.842;0.166;2023-06-04T05:22:03;14.60;83.80
15630;DHT22;7914;50.842;0.166;2023-06-04T05:24:29;15.10;81.40
15630;DHT22;7914;50.842;0.166;2023-06-04T05:26:55;15.30;80.10
15630;DHT22;7914;50.842;0.166;2023-06-04T05:29:23;15.50;80.10
15630;DHT22;7914;50.842;0.166;2023-06-04T05:31:48;15.80;78.40
15630;DHT22;7914;50.842;0.166;2023-06-04T05:34:15;15.90;77.00
15630;DHT22;7914;50.842;0.166;2023-06-04T05:36:44;15.50;79.10
15630;DHT22;7914;50.842;0.166;2023-06-04T05:39:10;15.30;80.20
15630;DHT22;7914;50.842;0.166;2023-06-04T05:41:36;15.40;80.30
15630;DHT22;7914;50.842;0.166;2023-06-04T05:44:02;15.90;78.10
15630;DHT22;7914;50.842;0.166;2023-06-04T05:46:28;16.30;76.50
15630;DHT22;7914;50.842;0.166;2023-06-04T05:48:54;16.60;75.90
15630;DHT22;7914;50.842;0.166;2023-06-04T05:51:20;16.50;74.60
15630;DHT22;7914;50.842;0.166;2023-06-04T05:53:46;16.10;76.60
15630;DHT22;7914;50.842;0.166;2023-06-04T05:56:12;16.10;76.70
15630;DHT22;7914;50.842;0.166;2023-06-04T05:58:38;16.10;77.40
15630;DHT22;7914;50.842;0.166;2023-06-04T06:01:04;16.20;76.40
15630;DHT22;7914;50.842;0.166;2023-06-04T06:03:30;16.00;77.00
15630;DHT22;7914;50.842;0.166;2023-06-04T06:05:56;15.50;79.10
15630;DHT22;7914;50.842;0.166;2023-06-04T06:08:25;15.10;80.80
15630;DHT22;7914;50.842;0.166;2023-06-04T06:10:51;14.90;82.20
15630;DHT22;7914;50.842;0.166;2023-06-04T06:13:16;15.00;82.10
15630;DHT22;7914;50.842;0.166;2023-06-04T06:15:42;15.20;81.70
15630;DHT22;7914;50.842;0.166;2023-06-04T06:18:08;15.40;80.30
15630;DHT22;7914;50.842;0.166;2023-06-04T06:20:34;15.30;80.40
15630;DHT22;7914;50.842;0.166;2023-06-04T06:23:09;15.10;82.20
15630;DHT22;7914;50.842;0.166;2023-06-04T06:25:35;15.10;82.00
15630;DHT22;7914;50.842;0.166;2023-06-04T06:28:00;15.40;81.00
15630;DHT22;7914;50.842;0.166;2023-06-04T06:30:26;15.40;81.80
15630;DHT22;7914;50.842;0.166;2023-06-04T06:32:52;15.50;80.90
15630;DHT22;7914;50.842;0.166;2023-06-04T06:35:19;15.50;80.80
15630;DHT22;7914;50.842;0.166;2023-06-04T06:37:44;15.60;80.70
15630;DHT22;7914;50.842;0.166;2023-06-04T06:40:10;15.80;80.60
15630;DHT22;7914;50.842;0.166;2023-06-04T06:42:36;16.00;79.60
15630;DHT22;7914;50.842;0.166;2023-06-04T06:45:02;16.30;78.70
15630;DHT22;7914;50.842;0.166;2023-06-04T06:47:27;16.00;79.30
15630;DHT22;7914;50.842;0.166;2023-06-04T06:49:53;16.00;79.70
15630;DHT22;7914;50.842;0.166;2023-06-04T06:52:20;16.00;79.60
15630;DHT22;7914;50.842;0.166;2023-06-04T06:54:45;16.20;80.10
15630;DHT22;7914;50.842;0.166;2023-06-04T06:57:11;16.70;77.10
15630;DHT22;7914;50.842;0.166;2023-06-04T06:59:37;17.10;75.50
15630;DHT22;7914;50.842;0.166;2023-06-04T07:02:04;17.50;73.50
15630;DHT22;7914;50.842;0.166;2023-06-04T07:04:30;17.50;73.80
15630;DHT22;7914;50.842;0.166;2023-06-04T07:06:56;17.70;72.90
15630;DHT22;7914;50.842;0.166;2023-06-04T07:09:22;17.60;73.30
15630;DHT22;7914;50.842;0.166;2023-06-04T07:11:47;17.70;72.40
15630;DHT22;7914;50.842;0.166;2023-06-04T07:14:14;17.20;73.70
15630;DHT22;7914;50.842;0.166;2023-06-04T07:16:40;17.30;75.30
15630;DHT22;7914;50.842;0.166;2023-06-04T07:19:06;17.80;71.70
15630;DHT22;7914;50.842;0.166;2023-06-04T07:21:31;17.70;73.10
15630;DHT22;7914;50.842;0.166;2023-06-04T07:23:57;17.50;72.50
15630;DHT22;7914;50.842;0.166;2023-06-04T07:26:23;17.80;71.90
15630;DHT22;7914;50.842;0.166;2023-06-04T07:28:50;18.00;71.70
15630;DHT22;7914;50.842;0.166;2023-06-04T07:31:16;18.20;70.50
15630;DHT22;7914;50.842;0.166;2023-06-04T07:33:42;18.30;70.90
15630;DHT22;7914;50.842;0.166;2023-06-04T07:36:15;18.10;71.10
15630;DHT22;7914;50.842;0.166;2023-06-04T07:38:41;18.20;70.40
15630;DHT22;7914;50.842;0.166;2023-06-04T07:41:08;18.60;69.20
15630;DHT22;7914;50.842;0.166;2023-06-04T07:43:34;18.40;68.80
15630;DHT22;7914;50.842;0.166;2023-06-04T07:46:01;18.20;69.90
15630;DHT22;7914;50.842;0.166;2023-06-04T07:48:27;18.30;69.40
15630;DHT22;7914;50.842;0.166;2023-06-04T07:51:00;17.90;72.40
15630;DHT22;7914;50.842;0.166;2023-06-04T07:53:26;18.10;70.90
15630;DHT22;7914;50.842;0.166;2023-06-04T07:55:53;18.20;71.80
15630;DHT22;7914;50.842;0.166;2023-06-04T07:58:19;18.20;71.10
15630;DHT22;7914;50.842;0.166;2023-06-04T08:00:44;18.50;69.80
15630;DHT22;7914;50.842;0.166;2023-06-04T08:03:10;18.20;71.20
15630;DHT22;7914;50.842;0.166;2023-06-04T08:05:36;18.50;69.50
15630;DHT22;7914;50.842;0.166;2023-06-04T08:08:02;18.10;71.80
15630;DHT22;7914;50.842;0.166;2023-06-04T08:10:29;18.30;72.00
15630;DHT22;7914;50.842;0.166;2023-06-04T08:12:56;18.40;71.40
15630;DHT22;7914;50.842;0.166;2023-06-04T08:15:22;18.50;71.00
15630;DHT22;7914;50.842;0.166;2023-06-04T08:17:48;18.30;70.70
15630;DHT22;7914;50.842;0.166;2023-06-04T08:20:13;18.20;71.10
15630;DHT22;7914;50.842;0.166;2023-06-04T08:22:39;18.40;70.60
15630;DHT22;7914;50.842;0.166;2023-06-04T08:25:06;18.20;70.60
15630;DHT22;7914;50.842;0.166;2023-06-04T08:27:32;18.20;70.50
15630;DHT22;7914;50.842;0.166;2023-06-04T08:29:58;18.10;71.20
15630;DHT22;7914;50.842;0.166;2023-06-04T08:32:24;18.10;71.30
15630;DHT22;7914;50.842;0.166;2023-06-04T08:34:50;18.20;72.70
15630;DHT22;7914;50.842;0.166;2023-06-04T08:37:17;18.30;72.10
15630;DHT22;7914;50.842;0.166;2023-06-04T08:39:43;18.30;71.20
15630;DHT22;7914;50.842;0.166;2023-06-04T08:42:27;18.20;71.90
15630;DHT22;7914;50.842;0.166;2023-06-04T08:44:54;18.20;71.10
15630;DHT22;7914;50.842;0.166;2023-06-04T08:47:24;18.20;71.20
15630;DHT22;7914;50.842;0.166;2023-06-04T08:49:51;18.40;71.60
15630;DHT22;7914;50.842;0.166;2023-06-04T08:52:18;18.50;71.60
15630;DHT22;7914;50.842;0.166;2023-06-04T08:54:51;18.50;71.10
15630;DHT22;7914;50.842;0.166;2023-06-04T08:57:19;18.40;70.50
15630;DHT22;7914;50.842;0.166;2023-06-04T08:59:46;18.60;70.30
15630;DHT22;7914;50.842;0.166;2023-06-04T09:02:13;18.70;71.30
15630;DHT22;7914;50.842;0.166;2023-06-04T09:04:40;18.80;71.60
15630;DHT22;7914;50.842;0.166;2023-06-04T09:07:06;18.90;70.90
15630;DHT22;7914;50.842;0.166;2023-06-04T09:09:46;18.90;70.80
15630;DHT22;7914;50.842;0.166;2023-06-04T09:12:17;19.10;70.10
15630;DHT22;7914;50.842;0.166;2023-06-04T09:14:47;19.00;70.60
15630;DHT22;7914;50.842;0.166;2023-06-04T09:17:13;19.00;70.00
15630;DHT22;7914;50.842;0.166;2023-06-04T09:19:40;18.90;68.70
15630;DHT22;7914;50.842;0.166;2023-06-04T09:22:06;19.00;71.10
15630;DHT22;7914;50.842;0.166;2023-06-04T09:24:45;19.20;70.80
15630;DHT22;7914;50.842;0.166;2023-06-04T09:27:20;19.50;69.10
15630;DHT22;7914;50.842;0.166;2023-06-04T09:29:51;19.40;68.30
15630;DHT22;7914;50.842;0.166;2023-06-04T09:32:24;19.40;67.90
15630;DHT22;7914;50.842;0.166;2023-06-04T09:34:50;19.50;68.60
15630;DHT22;7914;50.842;0.166;2023-06-04T09:37:18;19.70;69.00
15630;DHT22;7914;50.842;0.166;2023-06-04T09:39:53;19.90;68.60
15630;DHT22;7914;50.842;0.166;2023-06-04T09:42:19;19.80;68.50
15630;DHT22;7914;50.842;0.166;2023-06-04T09:44:44;19.80;66.30
15630;DHT22;7914;50.842;0.166;2023-06-04T09:47:11;20.00;67.50
15630;DHT22;7914;50.842;0.166;2023-06-04T09:49:47;19.70;66.40
15630;DHT22;7914;50.842;0.166;2023-06-04T09:52:14;19.90;65.00
15630;DHT22;7914;50.842;0.166;2023-06-04T09:54:41;19.70;66.90
15630;DHT22;7914;50.842;0.166;2023-06-04T09:57:17;19.80;66.70
15630;DHT22;7914;50.842;0.166;2023-06-04T09:59:50;19.80;67.60
15630;DHT22;7914;50.842;0.166;2023-06-04T10:02:22;19.90;66.00
15630;DHT22;7914;50.842;0.166;2023-06-04T10:04:55;20.00;64.30
15630;DHT22;7914;50.842;0.166;2023-06-04T10:07:25;19.80;64.90
15630;DHT22;7914;50.842;0.166;2023-06-04T10:09:52;20.00;66.50
15630;DHT22;7914;50.842;0.166;2023-06-04T10:12:29;20.30;65.10
15630;DHT22;7914;50.842;0.166;2023-06-04T10:15:02;20.00;64.20
15630;DHT22;7914;50.842;0.166;2023-06-04T10:17:28;20.00;63.80
15630;DHT22;7914;50.842;0.166;2023-06-04T10:19:56;20.30;64.50
15630;DHT22;7914;50.842;0.166;2023-06-04T10:22:24;20.20;65.90
15630;DHT22;7914;50.842;0.166;2023-06-04T10:24:50;20.20;65.60
15630;DHT22;7914;50.842;0.166;2023-06-04T10:27:19;20.40;66.20
15630;DHT22;7914;50.842;0.166;2023-06-04T10:29:46;20.50;65.30
15630;DHT22;7914;50.842;0.166;2023-06-04T10:32:12;20.60;64.90
15630;DHT22;7914;50.842;0.166;2023-06-04T10:34:38;20.70;61.80
15630;DHT22;7914;50.842;0.166;2023-06-04T10:37:04;21.00;62.20
15630;DHT22;7914;50.842;0.166;2023-06-04T10:39:32;20.70;61.40
15630;DHT22;7914;50.842;0.166;2023-06-04T10:42:02;20.30;59.90
15630;DHT22;7914;50.842;0.166;2023-06-04T10:44:30;20.20;60.20
15630;DHT22;7914;50.842;0.166;2023-06-04T10:46:57;20.40;61.90
15630;DHT22;7914;50.842;0.166;2023-06-04T10:49:30;20.60;62.80
15630;DHT22;7914;50.842;0.166;2023-06-04T10:51:56;20.50;60.00
15630;DHT22;7914;50.842;0.166;2023-06-04T10:54:28;20.80;60.40
15630;DHT22;7914;50.842;0.166;2023-06-04T10:56:54;20.70;58.00
15630;DHT22;7914;50.842;0.166;2023-06-04T10:59:21;20.60;58.10
15630;DHT22;7914;50.842;0.166;2023-06-04T11:01:47;20.50;60.20
15630;DHT22;7914;50.842;0.166;2023-06-04T11:04:22;20.50;60.20
15630;DHT22;7914;50.842;0.166;2023-06-04T11:06:59;20.40;59.00
15630;DHT22;7914;50.842;0.166;2023-06-04T11:09:27;20.50;59.80
15630;DHT22;7914;50.842;0.166;2023-06-04T11:11:59;20.70;58.50
15630;DHT22;7914;50.842;0.166;2023-06-04T11:14:26;20.60;57.90
15630;DHT22;7914;50.842;0.166;2023-06-04T11:16:51;20.50;57.40
15630;DHT22;7914;50.842;0.166;2023-06-04T11:19:17;20.60;57.40
15630;DHT22;7914;50.842;0.166;2023-06-04T11:21:44;20.60;57.70
15630;DHT22;7914;50.842;0.166;2023-06-04T11:24:12;20.50;57.60
15630;DHT22;7914;50.842;0.166;2023-06-04T11:26:38;20.40;59.20
15630;DHT22;7914;50.842;0.166;2023-06-04T11:29:08;20.40;59.90
15630;DHT22;7914;50.842;0.166;2023-06-04T11:31:47;20.40;57.50
15630;DHT22;7914;50.842;0.166;2023-06-04T11:34:28;20.40;58.00
15630;DHT22;7914;50.842;0.166;2023-06-04T11:36:54;20.50;57.90
15630;DHT22;7914;50.842;0.166;2023-06-04T11:39:21;20.60;58.10
15630;DHT22;7914;50.842;0.166;2023-06-04T11:41:47;20.70;60.00
15630;DHT22;7914;50.842;0.166;2023-06-04T11:44:14;21.10;57.10
15630;DHT22;7914;50.842;0.166;2023-06-04T11:46:41;20.90;57.80
15630;DHT22;7914;50.842;0.166;2023-06-04T11:49:11;20.70;57.60
15630;DHT22;7914;50.842;0.166;2023-06-04T11:51:38;20.50;60.60
15630;DHT22;7914;50.842;0.166;2023-06-04T11:54:04;20.80;58.90
15630;DHT22;7914;50.842;0.166;2023-06-04T11:56:30;21.00;60.60
15630;DHT22;7914;50.842;0.166;2023-06-04T11:58:55;21.10;58.30
15630;DHT22;7914;50.842;0.166;2023-06-04T12:01:21;20.90;59.40
15630;DHT22;7914;50.842;0.166;2023-06-04T12:03:48;21.00;58.20
15630;DHT22;7914;50.842;0.166;2023-06-04T12:08:54;20.90;60.80
15630;DHT22;7914;50.842;0.166;2023-06-04T12:13:56;20.80;58.10
15630;DHT22;7914;50.842;0.166;2023-06-04T12:16:22;20.60;58.50
15630;DHT22;7914;50.842;0.166;2023-06-04T12:18:48;20.80;58.20
15630;DHT22;7914;50.842;0.166;2023-06-04T12:21:23;21.00;58.70
15630;DHT22;7914;50.842;0.166;2023-06-04T12:24:06;20.80;58.30
15630;DHT22;7914;50.842;0.166;2023-06-04T12:26:32;20.80;60.00
15630;DHT22;7914;50.842;0.166;2023-06-04T12:29:12;20.60;58.90
15630;DHT22;7914;50.842;0.166;2023-06-04T12:31:44;20.50;58.60
15630;DHT22;7914;50.842;0.166;2023-06-04T12:34:14;20.70;58.70
15630;DHT22;7914;50.842;0.166;2023-06-04T12:36:40;20.70;59.30
15630;DHT22;7914;50.842;0.166;2023-06-04T12:39:06;20.80;59.30
15630;DHT22;7914;50.842;0.166;2023-06-04T12:41:32;20.70;59.90
15630;DHT22;7914;50.842;0.166;2023-06-04T12:43:59;20.60;59.40
15630;DHT22;7914;50.842;0.166;2023-06-04T12:46:25;20.50;58.40
15630;DHT22;7914;50.842;0.166;2023-06-04T12:48:53;20.50;60.10
15630;DHT22;7914;50.842;0.166;2023-06-04T12:51:19;20.50;60.50
15630;DHT22;7914;50.842;0.166;2023-06-04T12:53:49;20.80;59.80
15630;DHT22;7914;50.842;0.166;2023-06-04T12:56:15;20.90;58.60
15630;DHT22;7914;50.842;0.166;2023-06-04T12:58:41;21.10;59.40
15630;DHT22;7914;50.842;0.166;2023-06-04T13:01:07;20.90;59.40
15630;DHT22;7914;50.842;0.166;2023-06-04T13:03:35;20.80;61.00
15630;DHT22;7914;50.842;0.166;2023-06-04T13:06:02;20.70;58.90
15630;DHT22;7914;50.842;0.166;2023-06-04T13:08:28;20.60;58.70
15630;DHT22;7914;50.842;0.166;2023-06-04T13:10:53;20.70;58.10
15630;DHT22;7914;50.842;0.166;2023-06-04T13:13:20;20.80;59.10
15630;DHT22;7914;50.842;0.166;2023-06-04T13:15:46;20.80;59.30
15630;DHT22;7914;50.842;0.166;2023-06-04T13:18:12;20.90;59.60
15630;DHT22;7914;50.842;0.166;2023-06-04T13:20:40;21.00;60.20
15630;DHT22;7914;50.842;0.166;2023-06-04T13:23:06;21.00;59.50
15630;DHT22;7914;50.842;0.166;2023-06-04T13:25:32;20.90;58.90
15630;DHT22;7914;50.842;0.166;2023-06-04T13:28:02;20.70;58.10
15630;DHT22;7914;50.842;0.166;2023-06-04T13:30:28;20.70;57.30
15630;DHT22;7914;50.842;0.166;2023-06-04T13:32:54;20.50;58.50
15630;DHT22;7914;50.842;0.166;2023-06-04T13:35:20;20.50;59.70
15630;DHT22;7914;50.842;0.166;2023-06-04T13:37:46;20.70;55.60
15630;DHT22;7914;50.842;0.166;2023-06-04T13:40:13;20.60;58.20
15630;DHT22;7914;50.842;0.166;2023-06-04T13:42:39;20.70;57.50
15630;DHT22;7914;50.842;0.166;2023-06-04T13:45:05;20.40;59.10
15630;DHT22;7914;50.842;0.166;2023-06-04T13:47:31;20.40;57.20
15630;DHT22;7914;50.842;0.166;2023-06-04T13:49:58;20.20;57.70
15630;DHT22;7914;50.842;0.166;2023-06-04T13:52:24;20.30;56.60
15630;DHT22;7914;50.842;0.166;2023-06-04T13:54:49;20.10;58.20
15630;DHT22;7914;50.842;0.166;2023-06-04T13:57:16;20.20;57.80
15630;DHT22;7914;50.842;0.166;2023-06-04T13:59:42;20.40;58.50
15630;DHT22;7914;50.842;0.166;2023-06-04T14:02:08;20.30;58.00
15630;DHT22;7914;50.842;0.166;2023-06-04T14:04:33;20.30;59.60
15630;DHT22;7914;50.842;0.166;2023-06-04T14:06:59;20.30;59.40
15630;DHT22;7914;50.842;0.166;2023-06-04T14:09:25;20.20;57.00
15630;DHT22;7914;50.842;0.166;2023-06-04T14:11:51;20.30;58.30
15630;DHT22;7914;50.842;0.166;2023-06-04T14:14:17;20.10;57.80
15630;DHT22;7914;50.842;0.166;2023-06-04T14:16:44;20.20;57.50
15630;DHT22;7914;50.842;0.166;2023-06-04T14:19:10;20.30;59.00
15630;DHT22;7914;50.842;0.166;2023-06-04T14:21:36;20.30;59.00
15630;DHT22;7914;50.842;0.166;2023-06-04T14:24:02;20.20;59.70
15630;DHT22;7914;50.842;0.166;2023-06-04T14:26:28;20.20;58.00
15630;DHT22;7914;50.842;0.166;2023-06-04T14:28:55;20.00;56.40
15630;DHT22;7914;50.842;0.166;2023-06-04T14:31:21;20.00;56.10
15630;DHT22;7914;50.842;0.166;2023-06-04T14:33:47;19.90;56.30
15630;DHT22;7914;50.842;0.166;2023-06-04T14:36:13;20.00;54.80
15630;DHT22;7914;50.842;0.166;2023-06-04T14:38:39;19.90;55.90
15630;DHT22;7914;50.842;0.166;2023-06-04T14:41:04;20.00;56.60
15630;DHT22;7914;50.842;0.166;2023-06-04T14:43:30;19.80;58.10
15630;DHT22;7914;50.842;0.166;2023-06-04T14:45:56;19.70;56.00
15630;DHT22;7914;50.842;0.166;2023-06-04T14:48:21;19.80;55.90
15630;DHT22;7914;50.842;0.166;2023-06-04T14:50:47;19.70;55.80
15630;DHT22;7914;50.842;0.166;2023-06-04T14:53:13;19.60;54.40
15630;DHT22;7914;50.842;0.166;2023-06-04T14:55:39;19.70;55.30
15630;DHT22;7914;50.842;0.166;2023-06-04T14:58:05;19.80;54.40
15630;DHT22;7914;50.842;0.166;2023-06-04T15:00:31;19.70;54.70
15630;DHT22;7914;50.842;0.166;2023-06-04T15:02:57;19.70;55.30
15630;DHT22;7914;50.842;0.166;2023-06-04T15:05:23;19.60;53.60
15630;DHT22;7914;50.842;0.166;2023-06-04T15:07:49;19.50;54.10
15630;DHT22;7914;50.842;0.166;2023-06-04T15:10:15;19.60;54.90
15630;DHT22;7914;50.842;0.166;2023-06-04T15:12:41;19.50;53.50
15630;DHT22;7914;50.842;0.166;2023-06-04T15:15:07;19.40;52.40
15630;DHT22;7914;50.842;0.166;2023-06-04T15:17:34;19.40;54.20
15630;DHT22;7914;50.842;0.166;2023-06-04T15:20:00;19.50;54.50
15630;DHT22;7914;50.842;0.166;2023-06-04T15:22:26;19.50;54.60
15630;DHT22;7914;50.842;0.166;2023-06-04T15:24:53;19.60;52.80
15630;DHT22;7914;50.842;0.166;2023-06-04T15:27:18;19.50;54.60
15630;DHT22;7914;50.842;0.166;2023-06-04T15:29:44;19.50;53.90
15630;DHT22;7914;50.842;0.166;2023-06-04T15:32:10;19.60;53.30
15630;DHT22;7914;50.842;0.166;2023-06-04T15:34:36;19.70;52.80
15630;DHT22;7914;50.842;0.166;2023-06-04T15:37:02;19.50;51.80
15630;DHT22;7914;50.842;0.166;2023-06-04T15:39:27;19.50;52.20
15630;DHT22;7914;50.842;0.166;2023-06-04T15:41:53;19.40;50.30
15630;DHT22;7914;50.842;0.166;2023-06-04T15:44:18;19.40;51.30
15630;DHT22;7914;50.842;0.166;2023-06-04T15:46:44;19.30;51.40
15630;DHT22;7914;50.842;0.166;2023-06-04T15:49:10;19.30;51.70
15630;DHT22;7914;50.842;0.166;2023-06-04T15:51:36;19.30;51.00
15630;DHT22;7914;50.842;0.166;2023-06-04T15:54:02;19.30;52.30